Time;durP1;ratioP1;P1;durP2;ratioP2;P2;SDS_P1;SDS_P2;PMS_P1;PMS_P2;Temp;Humidity;BMP_temperature;BMP_pressure;BME280_temperature;BME280_humidity;BME280_pressure;Samples;Min_cycle;Max_cycle;Signal;HPM_P1;HPM_P2
2022/01/01 00:00:42;;;;;;;7.07;6.07;;;12.50;99.90;;;;;;5080763;28;20535;-52
2022/01/01 00:03:07;;;;;;;7.85;6.47;;;12.50;99.90;;;;;;5054700;28;20025;-49
2022/01/01 00:05:33;;;;;;;7.68;6.60;;;12.50;99.90;;;;;;5054456;28;20025;-54
2022/01/01 00:08:01;;;;;;;6.90;6.10;;;12.50;99.90;;;;;;5090518;28;20063;-49
2022/01/01 00:10:26;;;;;;;8.10;6.25;;;12.60;99.90;;;;;;5089989;28;20032;-50
2022/01/01 00:12:52;;;;;;;7.65;5.80;;;12.60;99.90;;;;;;5090318;28;20032;-50
2022/01/01 00:15:18;;;;;;;10.60;7.13;;;12.40;99.90;;;;;;5090076;28;20058;-48
2022/01/01 00:17:43;;;;;;;10.50;6.40;;;12.50;99.90;;;;;;5072275;28;20028;-49
2022/01/01 00:20:10;;;;;;;8.98;6.88;;;12.50;99.90;;;;;;5082767;28;20049;-51
2022/01/01 00:22:37;;;;;;;8.80;7.22;;;12.40;99.90;;;;;;5090260;28;20063;-49
2022/01/01 00:25:03;;;;;;;7.50;5.82;;;12.40;99.90;;;;;;5077926;28;20033;-52
2022/01/01 00:27:29;;;;;;;6.82;5.60;;;12.50;99.90;;;;;;5068903;28;20449;-48
2022/01/01 00:29:54;;;;;;;9.88;5.82;;;12.40;99.90;;;;;;5077617;28;20063;-50
2022/01/01 00:32:20;;;;;;;6.40;5.43;;;12.50;99.90;;;;;;5089471;28;20804;-53
2022/01/01 00:34:45;;;;;;;7.05;5.93;;;12.50;99.90;;;;;;5083363;28;20051;-53
2022/01/01 00:37:11;;;;;;;8.07;5.78;;;12.60;99.90;;;;;;5081698;28;20032;-51
2022/01/01 00:39:36;;;;;;;14.50;5.35;;;12.50;99.90;;;;;;5069365;28;20040;-52
2022/01/01 00:42:02;;;;;;;4.93;4.50;;;12.50;99.90;;;;;;5058541;28;20111;-53
2022/01/01 00:44:30;;;;;;;8.68;4.97;;;12.50;99.90;;;;;;5054937;28;20064;-50
2022/01/01 00:46:56;;;;;;;6.85;5.20;;;12.50;99.90;;;;;;5081823;28;20028;-51
2022/01/01 00:49:21;;;;;;;5.55;4.93;;;12.50;99.90;;;;;;5089045;28;20031;-48
2022/01/01 00:51:47;;;;;;;5.50;4.25;;;12.50;99.90;;;;;;5073635;28;20028;-48
2022/01/01 00:54:13;;;;;;;8.00;5.07;;;12.50;99.90;;;;;;5070318;28;20024;-55
2022/01/01 00:56:38;;;;;;;4.78;4.32;;;12.50;99.90;;;;;;5089313;28;20373;-50
2022/01/01 00:59:04;;;;;;;6.63;4.18;;;12.50;99.90;;;;;;5087986;28;20154;-51
2022/01/01 01:01:29;;;;;;;5.43;4.38;;;12.50;99.90;;;;;;5088939;28;20483;-54
2022/01/01 01:03:55;;;;;;;4.78;4.28;;;12.50;99.90;;;;;;5088809;28;20499;-53
2022/01/01 01:06:20;;;;;;;6.18;4.45;;;12.50;99.90;;;;;;5070845;28;20024;-50
2022/01/01 01:08:46;;;;;;;8.82;4.68;;;12.50;99.90;;;;;;5057748;28;20103;-52
2022/01/01 01:11:11;;;;;;;8.43;5.30;;;12.50;99.90;;;;;;5050281;28;20033;-61
2022/01/01 01:13:44;;;;;;;7.65;5.25;;;12.50;99.90;;;;;;5035848;28;20510;-55
2022/01/01 01:16:09;;;;;;;7.38;5.60;;;12.50;99.90;;;;;;5062193;28;20125;-51
2022/01/01 01:18:35;;;;;;;7.70;5.80;;;12.50;99.90;;;;;;5067234;28;20036;-52
2022/01/01 01:21:01;;;;;;;6.85;5.28;;;12.50;99.90;;;;;;5068531;28;20024;-47
2022/01/01 01:23:26;;;;;;;9.63;6.45;;;12.50;99.90;;;;;;5063465;28;20116;-55
2022/01/01 01:25:54;;;;;;;6.25;5.07;;;12.50;99.90;;;;;;5030917;28;20056;-51
2022/01/01 01:28:20;;;;;;;9.93;4.82;;;12.50;99.90;;;;;;5055417;28;20024;-51
2022/01/01 01:30:46;;;;;;;7.82;4.97;;;12.50;99.90;;;;;;5067615;28;20035;-49
2022/01/01 01:33:12;;;;;;;7.10;6.25;;;12.50;99.90;;;;;;5066372;28;20107;-49
2022/01/01 01:35:37;;;;;;;6.70;5.63;;;12.40;99.90;;;;;;5066347;28;20154;-52
2022/01/01 01:38:04;;;;;;;7.70;5.90;;;12.40;99.90;;;;;;5056965;28;20496;-49
2022/01/01 01:40:29;;;;;;;8.23;6.00;;;12.50;99.90;;;;;;5060033;28;20111;-51
2022/01/01 01:42:55;;;;;;;8.23;6.00;;;12.50;99.90;;;;;;5076361;28;20118;-47
2022/01/01 01:45:23;;;;;;;10.25;6.75;;;12.50;99.90;;;;;;5061550;28;20024;-49
2022/01/01 01:47:49;;;;;;;7.93;5.53;;;12.50;99.90;;;;;;5067737;28;20025;-50
2022/01/01 01:50:18;;;;;;;7.30;6.40;;;12.40;99.90;;;;;;5064713;28;20038;-47
2022/01/01 01:52:53;;;;;;;8.40;6.15;;;12.30;99.90;;;;;;5041133;28;20112;-49
2022/01/01 01:55:19;;;;;;;;;;;12.20;99.90;;;;;;5070371;28;20495;-49
2022/01/01 01:57:45;;;;;;;9.90;6.70;;;12.20;99.90;;;;;;5088783;28;19914;-52
2022/01/01 02:00:56;;;;;;;11.02;7.75;;;12.20;99.90;;;;;;5078696;28;20028;-52
2022/01/01 02:03:17;;;;;;;11.07;7.75;;;12.20;99.90;;;;;;5067950;28;20090;-54
2022/01/01 02:05:45;;;;;;;10.30;7.82;;;12.10;99.90;;;;;;5068197;28;20480;-49
2022/01/01 02:08:12;;;;;;;14.23;8.73;;;12.10;99.90;;;;;;5068176;28;20035;-49
2022/01/01 02:10:39;;;;;;;15.90;8.80;;;12.00;99.90;;;;;;5067900;28;20024;-48
2022/01/01 02:13:11;;;;;;;9.65;7.80;;;12.00;99.90;;;;;;5065329;28;20032;-48
2022/01/01 02:16:26;;;;;;;10.52;8.88;;;11.90;99.90;;;;;;5070526;28;20081;-51
2022/01/01 02:18:29;;;;;;;11.10;8.60;;;12.00;99.90;;;;;;5086918;28;20199;-48
2022/01/01 02:20:57;;;;;;;11.70;9.23;;;11.90;99.90;;;;;;5058157;28;20114;-51
2022/01/01 02:23:26;;;;;;;14.20;9.25;;;11.90;99.90;;;;;;5091927;28;20024;-47
2022/01/01 02:25:54;;;;;;;15.77;9.13;;;11.90;99.90;;;;;;5091367;28;20031;-52
2022/01/01 02:28:20;;;;;;;13.13;8.40;;;11.80;99.90;;;;;;5088065;28;20028;-51
2022/01/01 02:30:46;;;;;;;10.77;9.25;;;11.90;99.90;;;;;;5065428;28;20024;-49
2022/01/01 02:33:12;;;;;;;16.88;10.05;;;11.90;99.90;;;;;;5069124;28;20427;-50
2022/01/01 02:35:38;;;;;;;12.30;10.05;;;11.90;99.90;;;;;;5071896;28;20437;-50
2022/01/01 02:38:06;;;;;;;11.50;9.82;;;11.90;99.90;;;;;;5091604;28;20429;-51
2022/01/01 02:40:31;;;;;;;14.15;10.35;;;12.00;99.90;;;;;;5084282;28;20771;-49
2022/01/01 02:42:57;;;;;;;15.15;9.70;;;11.90;99.90;;;;;;5058139;28;20341;-49
2022/01/01 02:45:22;;;;;;;15.48;10.30;;;12.00;99.90;;;;;;5052538;28;20104;-51
2022/01/01 02:47:48;;;;;;;16.10;10.25;;;11.90;99.90;;;;;;5069210;28;20157;-48
2022/01/01 02:50:13;;;;;;;13.40;10.02;;;11.80;99.90;;;;;;5091422;28;20124;-50
2022/01/01 02:52:39;;;;;;;12.70;9.98;;;11.80;99.90;;;;;;5068287;28;20096;-53
2022/01/01 02:55:06;;;;;;;14.85;10.65;;;11.80;99.90;;;;;;5057676;28;20476;-51
2022/01/01 02:57:32;;;;;;;14.15;10.32;;;11.80;99.90;;;;;;5064481;28;20016;-50
2022/01/01 02:59:58;;;;;;;16.17;10.55;;;11.80;99.90;;;;;;5051026;28;20090;-48
2022/01/01 03:02:23;;;;;;;12.85;10.30;;;11.80;99.90;;;;;;5051407;28;20543;-48
2022/01/01 03:04:49;;;;;;;16.05;10.88;;;11.80;99.90;;;;;;5075557;28;20020;-50
2022/01/01 03:07:15;;;;;;;14.00;11.38;;;11.80;99.90;;;;;;5091420;28;20024;-47
2022/01/01 03:09:41;;;;;;;16.10;12.13;;;11.80;99.90;;;;;;5075388;28;20040;-48
2022/01/01 03:12:08;;;;;;;19.02;12.23;;;11.80;99.90;;;;;;5070622;28;20044;-51
2022/01/01 03:14:35;;;;;;;21.35;12.07;;;11.80;99.90;;;;;;5070906;28;20422;-51
2022/01/01 03:17:01;;;;;;;20.00;11.90;;;11.80;99.90;;;;;;5083236;28;20024;-47
2022/01/01 03:19:26;;;;;;;14.25;11.57;;;11.80;99.90;;;;;;5077711;28;20036;-52
2022/01/01 03:21:52;;;;;;;14.48;11.02;;;11.80;99.90;;;;;;5074379;28;20067;-48
2022/01/01 03:24:18;;;;;;;15.55;11.50;;;11.70;99.90;;;;;;5070792;28;20029;-49
2022/01/01 03:26:43;;;;;;;14.75;10.90;;;11.80;99.90;;;;;;5089319;28;20453;-51
2022/01/01 03:29:10;;;;;;;18.50;10.60;;;11.80;99.90;;;;;;5090565;28;20032;-49
2022/01/01 03:31:35;;;;;;;17.95;11.60;;;11.80;99.90;;;;;;5090734;28;20119;-48
2022/01/01 03:34:01;;;;;;;16.23;11.75;;;11.80;99.90;;;;;;5072518;28;20126;-48
2022/01/01 03:36:27;;;;;;;14.77;10.88;;;11.80;99.90;;;;;;5090586;28;20040;-47
2022/01/01 03:38:53;;;;;;;17.13;10.77;;;11.70;99.90;;;;;;5090365;28;20028;-50
2022/01/01 03:41:19;;;;;;;13.48;10.20;;;11.80;99.90;;;;;;5072085;28;20494;-48
2022/01/01 03:43:45;;;;;;;15.15;11.18;;;11.80;99.90;;;;;;5090602;28;20035;-48
2022/01/01 03:46:11;;;;;;;16.00;11.35;;;11.80;99.90;;;;;;5090674;28;20028;-46
2022/01/01 03:48:36;;;;;;;15.65;11.18;;;11.80;99.90;;;;;;5071942;28;20024;-47
2022/01/01 03:51:02;;;;;;;18.27;12.13;;;11.90;99.90;;;;;;5090216;28;20024;-49
2022/01/01 03:53:27;;;;;;;13.68;11.13;;;11.90;99.90;;;;;;5072052;28;20028;-51
2022/01/01 03:55:53;;;;;;;19.27;12.23;;;11.90;99.90;;;;;;5090346;28;20036;-49
2022/01/01 03:58:19;;;;;;;15.55;10.85;;;11.80;99.90;;;;;;5090765;28;20113;-47
2022/01/01 04:00:44;;;;;;;17.33;11.18;;;11.80;99.90;;;;;;5071565;28;20032;-50
2022/01/01 04:03:16;;;;;;;15.43;11.18;;;11.80;99.90;;;;;;5090222;28;20099;-47
2022/01/01 04:05:41;;;;;;;14.88;10.73;;;11.80;99.90;;;;;;5089926;28;20032;-47
2022/01/01 04:08:08;;;;;;;15.90;10.70;;;11.80;99.90;;;;;;5090058;28;20388;-47
2022/01/01 04:10:35;;;;;;;14.63;10.52;;;11.90;99.90;;;;;;5089445;28;20055;-48
2022/01/01 04:13:02;;;;;;;16.98;10.77;;;11.90;99.90;;;;;;5089925;28;20465;-50
2022/01/01 04:15:29;;;;;;;15.50;10.35;;;11.90;99.90;;;;;;5089999;28;20453;-47
2022/01/01 04:18:01;;;;;;;16.15;10.73;;;11.90;99.90;;;;;;5089971;28;20038;-47
2022/01/01 04:20:27;;;;;;;17.45;12.45;;;11.90;99.90;;;;;;5089627;28;20020;-49
2022/01/01 04:22:54;;;;;;;16.25;11.73;;;11.90;99.90;;;;;;5089738;28;20032;-49
2022/01/01 04:25:21;;;;;;;19.77;12.80;;;11.90;99.90;;;;;;5089888;28;20028;-46
2022/01/01 04:27:53;;;;;;;16.85;11.95;;;11.90;99.90;;;;;;5089832;28;20024;-47
2022/01/01 04:30:18;;;;;;;18.60;12.70;;;11.90;99.90;;;;;;5067700;28;20040;-47
2022/01/01 04:32:44;;;;;;;15.55;12.27;;;11.90;99.90;;;;;;5068257;28;20496;-46
2022/01/01 04:35:11;;;;;;;22.48;14.75;;;11.90;99.90;;;;;;5062318;28;20058;-48
2022/01/01 04:37:38;;;;;;;18.75;12.70;;;11.90;99.90;;;;;;5089713;28;20024;-49
2022/01/01 04:40:05;;;;;;;18.15;12.75;;;12.00;99.90;;;;;;5088488;28;20035;-52
2022/01/01 04:42:31;;;;;;;18.17;12.93;;;12.00;99.90;;;;;;5089404;28;20375;-47
2022/01/01 04:44:57;;;;;;;17.45;13.02;;;11.90;99.90;;;;;;5089323;28;20016;-51
2022/01/01 04:47:24;;;;;;;17.10;12.27;;;11.90;99.90;;;;;;5089286;28;20487;-50
2022/01/01 04:49:49;;;;;;;16.77;11.27;;;11.90;99.90;;;;;;5088751;28;20400;-47
2022/01/01 04:52:15;;;;;;;18.10;12.73;;;11.90;99.90;;;;;;5089063;28;20028;-48
2022/01/01 04:54:42;;;;;;;20.27;12.52;;;11.80;99.90;;;;;;5089274;28;20028;-52
2022/01/01 04:57:08;;;;;;;15.25;11.73;;;11.80;99.90;;;;;;5056251;28;20038;-46
2022/01/01 04:59:38;;;;;;;14.63;11.50;;;11.90;99.90;;;;;;5088973;28;20527;-45
2022/01/01 05:02:04;;;;;;;15.20;11.73;;;11.80;99.90;;;;;;5088616;28;20791;-48
2022/01/01 05:04:30;;;;;;;17.75;12.70;;;11.80;99.90;;;;;;5089134;28;20395;-47
2022/01/01 05:06:55;;;;;;;14.63;11.32;;;11.80;99.90;;;;;;5089224;28;20039;-49
2022/01/01 05:09:21;;;;;;;16.02;11.30;;;11.80;99.90;;;;;;5089079;28;20471;-47
2022/01/01 05:11:47;;;;;;;18.33;11.48;;;11.80;99.90;;;;;;5088756;28;20525;-51
2022/01/01 05:14:14;;;;;;;14.88;11.05;;;11.70;99.90;;;;;;5088787;28;20499;-51
2022/01/01 05:16:40;;;;;;;14.90;11.15;;;11.70;99.90;;;;;;5088736;28;20103;-47
2022/01/01 05:19:06;;;;;;;17.45;12.07;;;11.80;99.90;;;;;;5069355;28;20051;-48
2022/01/01 05:21:34;;;;;;;21.90;12.77;;;11.80;99.90;;;;;;5083704;28;20435;-48
2022/01/01 05:24:00;;;;;;;19.73;12.60;;;11.80;99.90;;;;;;5088721;28;20031;-48
2022/01/01 05:26:26;;;;;;;18.63;13.02;;;11.70;99.90;;;;;;5088451;28;20056;-46
2022/01/01 05:28:51;;;;;;;18.52;12.77;;;11.70;99.90;;;;;;5088775;28;20048;-49
2022/01/01 05:31:19;;;;;;;16.98;12.38;;;11.70;99.90;;;;;;5074341;28;20045;-53
2022/01/01 05:33:46;;;;;;;16.95;12.15;;;11.60;99.90;;;;;;5078922;28;20194;-51
2022/01/01 05:36:12;;;;;;;16.08;12.20;;;11.60;99.90;;;;;;5079741;28;20079;-48
2022/01/01 05:38:37;;;;;;;13.65;11.40;;;11.60;99.90;;;;;;5080520;28;20445;-49
2022/01/01 05:41:03;;;;;;;15.13;12.15;;;11.60;99.90;;;;;;5073344;28;20017;-50
2022/01/01 05:43:29;;;;;;;22.55;12.20;;;11.60;99.90;;;;;;5091527;28;20018;-50
2022/01/01 05:45:55;;;;;;;18.77;12.50;;;11.70;99.90;;;;;;5082833;28;20029;-55
2022/01/01 05:48:20;;;;;;;17.15;12.00;;;11.80;99.90;;;;;;5053226;28;20035;-50
2022/01/01 05:50:46;;;;;;;18.02;12.80;;;11.90;99.90;;;;;;5071017;28;20047;-54
2022/01/01 05:53:11;;;;;;;18.17;11.85;;;12.00;99.90;;;;;;5075376;28;20029;-54
2022/01/01 05:55:37;;;;;;;14.70;11.52;;;12.00;99.90;;;;;;5075407;28;20519;-52
2022/01/01 05:58:05;;;;;;;18.35;12.75;;;11.90;99.90;;;;;;5074785;28;20507;-51
2022/01/01 06:00:31;;;;;;;18.75;11.07;;;11.80;99.90;;;;;;5075062;28;20032;-55
2022/01/01 06:03:00;;;;;;;16.98;12.43;;;11.80;99.90;;;;;;5076454;28;20028;-52
2022/01/01 06:05:26;;;;;;;15.13;11.07;;;11.80;99.90;;;;;;5075466;28;20057;-55
2022/01/01 06:07:54;;;;;;;15.57;11.27;;;11.80;99.90;;;;;;5075730;28;20071;-55
2022/01/01 06:10:20;;;;;;;16.65;12.30;;;11.80;99.90;;;;;;5075188;28;20082;-55
2022/01/01 06:12:45;;;;;;;17.55;11.10;;;11.80;99.90;;;;;;5075517;28;20471;-56
2022/01/01 06:15:11;;;;;;;18.05;12.93;;;11.80;99.90;;;;;;5075132;28;21329;-54
2022/01/01 06:17:36;;;;;;;17.20;11.70;;;11.70;99.90;;;;;;5075232;28;20036;-63
2022/01/01 06:20:02;;;;;;;17.42;12.35;;;11.70;99.90;;;;;;5074611;28;20060;-57
2022/01/01 06:22:28;;;;;;;24.77;18.15;;;11.60;99.90;;;;;;5075086;28;20433;-54
2022/01/01 06:24:53;;;;;;;110.97;58.45;;;11.60;99.90;;;;;;5074994;28;20032;-56
2022/01/01 06:27:19;;;;;;;21.58;14.70;;;11.60;99.90;;;;;;5075260;28;20032;-54
2022/01/01 06:29:45;;;;;;;19.92;11.95;;;11.60;99.90;;;;;;5075934;28;20158;-55
2022/01/01 06:32:12;;;;;;;16.50;12.32;;;11.60;99.90;;;;;;5076576;28;20074;-51
2022/01/01 06:34:37;;;;;;;17.00;12.32;;;11.50;99.90;;;;;;5076410;28;20103;-51
2022/01/01 06:37:03;;;;;;;14.10;11.73;;;11.50;99.90;;;;;;5075264;28;20444;-52
2022/01/01 06:39:28;;;;;;;22.05;11.75;;;11.40;99.90;;;;;;5074431;28;20025;-53
2022/01/01 06:41:54;;;;;;;18.75;11.73;;;11.30;99.90;;;;;;5074560;28;20060;-52
2022/01/01 06:44:19;;;;;;;18.58;12.27;;;11.30;99.90;;;;;;5074635;28;20032;-53
2022/01/01 06:46:45;;;;;;;17.73;12.15;;;11.30;99.90;;;;;;5074522;28;20028;-51
2022/01/01 06:49:10;;;;;;;12.60;10.70;;;11.20;99.90;;;;;;5074136;28;20510;-51
2022/01/01 06:51:36;;;;;;;16.58;10.60;;;11.20;99.90;;;;;;5074550;28;20025;-49
2022/01/01 06:54:03;;;;;;;18.33;10.48;;;11.10;99.90;;;;;;5074383;28;20499;-56
2022/01/01 06:56:28;;;;;;;16.05;10.65;;;11.10;99.90;;;;;;5074037;28;20024;-51
2022/01/01 06:58:54;;;;;;;16.73;10.52;;;11.20;99.90;;;;;;5074300;28;20036;-51
2022/01/01 07:01:19;;;;;;;14.57;11.13;;;11.20;99.90;;;;;;5074059;28;20395;-54
2022/01/01 07:03:45;;;;;;;14.68;9.75;;;11.20;99.90;;;;;;5073663;28;20495;-55
2022/01/01 07:06:10;;;;;;;12.25;9.85;;;11.20;99.90;;;;;;5073866;28;20021;-55
2022/01/01 07:08:36;;;;;;;15.75;10.38;;;11.20;99.90;;;;;;5073955;28;20096;-53
2022/01/01 07:11:01;;;;;;;14.45;10.02;;;11.20;99.90;;;;;;5073738;28;20017;-54
2022/01/01 07:13:27;;;;;;;15.70;10.98;;;11.20;99.90;;;;;;5056069;28;20029;-54
2022/01/01 07:15:52;;;;;;;13.10;10.07;;;11.10;99.90;;;;;;5074201;28;20029;-55
2022/01/01 07:18:18;;;;;;;14.18;9.73;;;11.10;99.90;;;;;;5056135;28;20021;-51
2022/01/01 07:20:43;;;;;;;13.27;9.18;;;11.00;99.90;;;;;;5073702;28;20028;-52
2022/01/01 07:23:10;;;;;;;16.23;10.40;;;11.10;99.90;;;;;;5073837;28;20078;-50
2022/01/01 07:25:36;;;;;;;17.65;10.77;;;11.20;99.90;;;;;;5073692;28;20086;-52
2022/01/01 07:28:02;;;;;;;15.43;10.45;;;11.10;99.90;;;;;;5073965;28;20028;-52
2022/01/01 07:30:28;;;;;;;14.20;9.90;;;11.10;99.90;;;;;;5073437;28;20024;-51
2022/01/01 07:32:53;;;;;;;14.32;9.98;;;11.20;99.90;;;;;;5073739;28;20028;-50
2022/01/01 07:35:20;;;;;;;13.23;9.50;;;11.10;99.90;;;;;;5073595;28;20036;-54
2022/01/01 07:37:46;;;;;;;12.50;9.30;;;11.20;99.90;;;;;;5073584;28;20495;-53
2022/01/01 07:40:14;;;;;;;11.07;8.88;;;11.00;99.90;;;;;;5073297;28;20024;-55
2022/01/01 07:42:40;;;;;;;13.15;9.05;;;11.10;99.90;;;;;;5073473;28;20082;-54
2022/01/01 07:45:07;;;;;;;10.65;8.65;;;11.10;99.90;;;;;;5073503;28;20040;-51
2022/01/01 07:47:33;;;;;;;11.45;8.50;;;11.20;99.90;;;;;;5073359;28;20028;-50
2022/01/01 07:49:58;;;;;;;14.93;8.70;;;11.20;99.90;;;;;;5073143;28;20080;-53
2022/01/01 07:52:24;;;;;;;11.55;8.40;;;11.20;99.90;;;;;;5055244;28;20040;-54
2022/01/01 07:54:50;;;;;;;15.20;9.85;;;11.20;99.90;;;;;;5073318;28;20025;-51
2022/01/01 07:57:15;;;;;;;11.68;8.90;;;11.30;99.90;;;;;;5073207;28;20036;-54
2022/01/01 07:59:41;;;;;;;12.00;9.23;;;11.40;99.90;;;;;;5073003;28;20060;-54
2022/01/01 08:02:06;;;;;;;16.25;9.43;;;11.40;99.90;;;;;;5073053;28;20024;-55
2022/01/01 08:04:32;;;;;;;14.55;9.90;;;11.40;99.90;;;;;;5073345;28;20024;-56
2022/01/01 08:06:57;;;;;;;16.48;9.52;;;11.40;99.90;;;;;;5073121;28;20020;-53
2022/01/01 08:09:23;;;;;;;12.65;8.90;;;11.40;99.90;;;;;;5072825;28;20031;-55
2022/01/01 08:11:50;;;;;;;15.95;9.75;;;11.40;99.90;;;;;;5054988;28;20028;-54
2022/01/01 08:14:16;;;;;;;15.32;8.13;;;11.50;99.90;;;;;;5054000;28;20602;-51
2022/01/01 08:17:01;;;;;;;13.60;8.80;;;11.50;99.90;;;;;;5072748;28;20033;-55
2022/01/01 08:19:28;;;;;;;11.52;8.35;;;11.50;99.90;;;;;;5054573;28;20519;-52
2022/01/01 08:21:54;;;;;;;13.48;8.82;;;11.40;99.90;;;;;;5072893;28;20047;-50
2022/01/01 08:24:20;;;;;;;13.15;9.20;;;11.40;99.90;;;;;;5072754;28;20032;-52
2022/01/01 08:26:46;;;;;;;12.80;8.43;;;11.30;99.90;;;;;;5072665;28;20039;-53
2022/01/01 08:29:11;;;;;;;12.35;9.52;;;11.30;99.90;;;;;;5072328;28;20016;-50
2022/01/01 08:31:37;;;;;;;13.57;8.52;;;11.40;99.90;;;;;;5072633;28;20043;-52
2022/01/01 08:34:03;;;;;;;13.23;9.48;;;11.40;99.90;;;;;;5072672;28;20074;-52
2022/01/01 08:36:28;;;;;;;13.00;8.60;;;11.40;99.90;;;;;;5072651;28;20024;-56
2022/01/01 08:38:54;;;;;;;12.13;8.68;;;11.40;99.90;;;;;;5054594;28;20020;-55
2022/01/01 08:41:19;;;;;;;12.90;8.75;;;11.50;99.90;;;;;;5072404;28;20031;-52
2022/01/01 08:43:45;;;;;;;13.45;8.88;;;11.50;99.90;;;;;;5072358;28;20032;-53
2022/01/01 08:46:11;;;;;;;13.40;9.07;;;11.50;99.90;;;;;;5054173;28;20066;-55
2022/01/01 08:48:37;;;;;;;11.93;8.20;;;11.50;99.90;;;;;;5072312;28;20365;-53
2022/01/01 08:51:22;;;;;;;11.30;8.80;;;11.50;99.90;;;;;;5072016;28;20028;-51
2022/01/01 08:53:48;;;;;;;12.20;9.37;;;11.60;99.90;;;;;;5072183;28;20039;-53
2022/01/01 08:56:15;;;;;;;12.65;9.10;;;11.70;99.90;;;;;;5071743;28;20267;-51
2022/01/01 08:58:41;;;;;;;11.75;8.88;;;11.80;99.90;;;;;;5072014;28;20108;-54
2022/01/01 09:01:07;;;;;;;12.02;9.13;;;11.70;99.90;;;;;;5071550;28;20056;-52
2022/01/01 09:03:35;;;;;;;12.40;8.63;;;11.70;99.90;;;;;;5071827;28;20047;-51
2022/01/01 09:06:02;;;;;;;11.57;9.85;;;11.70;99.90;;;;;;5053804;28;20020;-49
2022/01/01 09:08:29;;;;;;;11.93;8.55;;;11.70;99.90;;;;;;5071897;28;20373;-56
2022/01/01 09:10:55;;;;;;;12.48;8.82;;;11.70;99.90;;;;;;5053846;28;20484;-51
2022/01/01 09:13:20;;;;;;;12.95;9.55;;;11.80;99.90;;;;;;5071830;28;20060;-54
2022/01/01 09:15:46;;;;;;;12.02;9.30;;;11.70;99.90;;;;;;5071821;28;20032;-51
2022/01/01 09:18:12;;;;;;;14.82;10.18;;;11.70;99.90;;;;;;5071885;28;20032;-52
2022/01/01 09:20:37;;;;;;;14.63;8.88;;;11.70;99.90;;;;;;5071381;28;20021;-53
2022/01/01 09:23:03;;;;;;;12.70;8.60;;;11.70;99.90;;;;;;5071557;28;20021;-55
2022/01/01 09:25:28;;;;;;;16.65;9.40;;;11.80;99.90;;;;;;5071306;28;20020;-53
2022/01/01 09:27:54;;;;;;;13.77;9.32;;;11.80;99.90;;;;;;5071563;28;20137;-55
2022/01/01 09:30:20;;;;;;;12.32;8.68;;;12.00;99.90;;;;;;5053228;28;20028;-54
2022/01/01 09:32:45;;;;;;;12.85;9.43;;;12.00;99.90;;;;;;5071433;28;20021;-54
2022/01/01 09:35:11;;;;;;;11.57;9.23;;;12.00;99.90;;;;;;5071383;28;20047;-51
2022/01/01 09:37:36;;;;;;;13.55;9.40;;;12.00;99.90;;;;;;5071387;28;20028;-55
2022/01/01 09:40:03;;;;;;;12.18;9.18;;;12.00;99.90;;;;;;5070904;28;20032;-52
2022/01/01 09:42:29;;;;;;;13.13;8.73;;;12.00;99.90;;;;;;5053178;28;20036;-54
2022/01/01 09:44:57;;;;;;;13.55;8.50;;;12.10;99.90;;;;;;5071089;28;20096;-52
2022/01/01 09:47:23;;;;;;;10.20;8.68;;;12.10;99.90;;;;;;5071314;28;20028;-54
2022/01/01 09:49:48;;;;;;;12.25;8.88;;;12.10;99.90;;;;;;5071082;28;20024;-53
2022/01/01 09:52:16;;;;;;;12.38;8.50;;;12.00;99.90;;;;;;5071151;28;20024;-53
2022/01/01 09:54:43;;;;;;;11.05;7.97;;;12.00;99.90;;;;;;5053410;28;20314;-52
2022/01/01 09:57:10;;;;;;;25.95;9.98;;;11.90;99.90;;;;;;5071070;28;20078;-52
2022/01/01 09:59:37;;;;;;;10.10;8.18;;;11.90;99.90;;;;;;5071135;28;20100;-54
2022/01/01 10:02:03;;;;;;;15.77;9.10;;;11.90;99.90;;;;;;5071224;28;20021;-52
2022/01/01 10:04:40;;;;;;;11.30;8.45;;;11.90;99.90;;;;;;5071285;28;20040;-53
2022/01/01 10:07:06;;;;;;;11.95;8.90;;;11.90;99.90;;;;;;5071043;28;20052;-54
2022/01/01 10:09:37;;;;;;;13.80;8.80;;;12.00;99.90;;;;;;5052820;28;20059;-51
2022/01/01 10:12:06;;;;;;;12.60;8.95;;;12.00;99.90;;;;;;5070946;28;20021;-55
2022/01/01 10:14:42;;;;;;;17.08;8.20;;;12.00;99.90;;;;;;5071023;28;20021;-56
2022/01/01 10:17:14;;;;;;;13.48;9.35;;;12.00;99.90;;;;;;5071065;28;20028;-51
2022/01/01 10:19:40;;;;;;;12.90;8.73;;;12.00;99.90;;;;;;5070890;28;20016;-55
2022/01/01 10:22:06;;;;;;;16.58;8.93;;;12.10;99.90;;;;;;5053069;28;20191;-56
2022/01/01 10:30:01;;;;;;;14.73;9.52;;;12.00;99.90;;;;;;5071042;28;20045;-52
2022/01/01 10:32:26;;;;;;;13.80;9.15;;;12.00;99.90;;;;;;5070733;28;20029;-55
2022/01/01 10:34:52;;;;;;;13.50;8.98;;;11.90;99.90;;;;;;5070822;28;20028;-49
2022/01/01 10:37:17;;;;;;;14.32;9.15;;;11.90;99.90;;;;;;5071823;28;20024;-47
2022/01/01 10:39:50;;;;;;;13.73;8.85;;;11.90;99.90;;;;;;5074103;28;20070;-47
2022/01/01 10:42:16;;;;;;;13.23;8.52;;;11.90;99.90;;;;;;5074649;28;20024;-45
2022/01/01 10:44:46;;;;;;;10.48;8.35;;;11.90;99.90;;;;;;5074596;28;20025;-49
2022/01/01 10:47:20;;;;;;;11.90;8.65;;;11.90;99.90;;;;;;5074528;28;20540;-47
2022/01/01 10:52:29;;;;;;;10.60;8.77;;;12.10;99.90;;;;;;5074486;28;20099;-46
2022/01/01 10:55:06;;;;;;;13.13;9.25;;;12.20;99.90;;;;;;5074618;28;20012;-49
2022/01/01 10:57:36;;;;;;;15.68;9.65;;;12.10;99.90;;;;;;5074302;28;20031;-56
2022/01/01 11:00:17;;;;;;;16.60;9.70;;;12.10;99.90;;;;;;5074125;28;20086;-51
2022/01/01 11:02:48;;;;;;;11.55;9.38;;;12.10;99.90;;;;;;5074535;28;20098;-52
2022/01/01 11:05:14;;;;;;;13.02;9.35;;;12.10;99.90;;;;;;5074208;28;20018;-54
2022/01/01 11:07:50;;;;;;;13.35;9.38;;;12.10;99.90;;;;;;5074224;28;20100;-53
2022/01/01 11:10:17;;;;;;;16.77;8.85;;;12.10;99.90;;;;;;5073900;28;20021;-54
2022/01/01 11:12:43;;;;;;;14.00;9.65;;;12.00;99.90;;;;;;5055854;28;20082;-52
2022/01/01 11:15:10;;;;;;;17.27;9.55;;;12.10;99.90;;;;;;5073983;28;20037;-50
2022/01/01 11:17:37;;;;;;;15.18;9.30;;;12.10;99.90;;;;;;5074201;28;20557;-52
2022/01/01 11:20:05;;;;;;;13.77;9.45;;;12.20;99.90;;;;;;5073514;28;20460;-53
2022/01/01 11:22:30;;;;;;;10.48;8.60;;;12.30;99.90;;;;;;5073839;28;20388;-50
2022/01/01 11:24:56;;;;;;;12.88;9.73;;;12.30;99.90;;;;;;5071617;28;20199;-50
2022/01/01 11:27:28;;;;;;;12.40;8.60;;;12.30;99.90;;;;;;5061462;28;20513;-51
2022/01/01 11:29:55;;;;;;;11.43;8.65;;;12.30;99.90;;;;;;5093956;28;20040;-52
2022/01/01 11:32:44;;;;;;;17.55;9.02;;;12.20;99.90;;;;;;5093878;28;20020;-53
2022/01/01 11:35:23;;;;;;;11.27;8.55;;;12.20;99.90;;;;;;5075179;28;20036;-49
2022/01/01 11:38:12;;;;;;;10.90;8.77;;;12.10;99.90;;;;;;5061415;28;20112;-49
2022/01/01 11:41:10;;;;;;;13.70;8.65;;;12.10;99.90;;;;;;5085648;28;20039;-49
2022/01/01 11:43:48;;;;;;;10.85;8.48;;;12.10;99.90;;;;;;5054256;28;20029;-49
2022/01/01 11:46:17;;;;;;;12.05;8.90;;;12.10;99.90;;;;;;5054983;28;20029;-48
2022/01/01 11:48:45;;;;;;;11.30;8.65;;;12.20;99.90;;;;;;5088190;28;20095;-50
2022/01/01 11:51:32;;;;;;;16.13;8.82;;;12.20;99.90;;;;;;5068271;28;20055;-52
2022/01/01 11:54:17;;;;;;;11.13;7.40;;;12.30;99.90;;;;;;5056635;28;20577;-48
2022/01/01 11:56:49;;;;;;;9.98;7.90;;;12.20;99.90;;;;;;5071161;28;20074;-52
2022/01/01 11:59:37;;;;;;;13.55;7.85;;;12.30;99.90;;;;;;5070482;28;20067;-52
2022/01/01 12:02:34;;;;;;;13.07;8.20;;;12.30;99.90;;;;;;5075184;28;20027;-48
2022/01/01 12:05:11;;;;;;;12.18;7.28;;;12.50;99.90;;;;;;5106859;22;20520;-51
2022/01/01 12:07:49;;;;;;;11.60;7.40;;;12.60;99.90;;;;;;5066047;28;20020;-45
2022/01/01 12:10:17;;;;;;;10.23;7.18;;;12.60;99.90;;;;;;5081711;28;20024;-45
2022/01/01 12:12:53;;;;;;;8.20;7.15;;;12.70;99.90;;;;;;5084540;28;20027;-53
2022/01/01 12:15:26;;;;;;;12.93;7.38;;;12.70;99.90;;;;;;5078182;28;20081;-48
2022/01/01 12:18:10;;;;;;;11.77;7.90;;;12.60;99.90;;;;;;5074940;28;20104;-50
2022/01/01 12:20:46;;;;;;;9.23;7.13;;;12.60;99.90;;;;;;5073062;28;20033;-51
2022/01/01 12:23:22;;;;;;;12.40;7.63;;;12.50;99.90;;;;;;5072798;28;20017;-51
2022/01/01 12:25:49;;;;;;;39.58;24.77;;;12.50;99.90;;;;;;5054832;28;20020;-48
2022/01/01 12:28:21;;;;;;;15.13;9.70;;;12.60;99.90;;;;;;5072401;28;20033;-53
2022/01/01 12:30:52;;;;;;;10.85;8.57;;;12.70;99.90;;;;;;5072370;28;20024;-48
2022/01/01 12:33:43;;;;;;;14.73;8.63;;;12.60;99.90;;;;;;5054772;28;20028;-49
2022/01/01 12:36:13;;;;;;;12.52;7.75;;;12.70;99.90;;;;;;5073427;28;20020;-50
2022/01/01 12:38:40;;;;;;;9.80;7.13;;;12.60;99.90;;;;;;5072456;28;20027;-51
2022/01/01 12:41:14;;;;;;;17.05;7.97;;;12.60;99.90;;;;;;5072523;28;20027;-49
2022/01/01 12:43:50;;;;;;;9.50;7.63;;;12.70;99.90;;;;;;5054333;28;20056;-50
2022/01/01 12:46:28;;;;;;;14.98;7.90;;;12.70;99.90;;;;;;5072424;28;20486;-49